Time;durP1;ratioP1;P1;durP2;ratioP2;P2;SDS_P1;SDS_P2;PMS_P1;PMS_P2;Temp;Humidity;BMP_temperature;BMP_pressure;BME280_temperature;BME280_humidity;BME280_pressure;Samples;Min_cycle;Max_cycle;Signal;HPM_P1;HPM_P2
2023/12/18 00:00:14;;;;;;;4.15;3.03;;;;;;;6.73;100.00;103383.63;5093856;27;97984;-27
2023/12/18 00:02:40;;;;;;;5.05;3.40;;;;;;;6.71;100.00;103383.59;5094181;27;99672;-28
2023/12/18 00:05:06;;;;;;;3.90;2.08;;;;;;;6.68;100.00;103367.47;5094539;27;96679;-29
2023/12/18 00:07:32;;;;;;;11.50;3.10;;;;;;;6.68;100.00;103358.50;5094339;27;96846;-27
2023/12/18 00:09:57;;;;;;;7.70;2.67;;;;;;;6.73;100.00;103381.81;5094119;27;98168;-28
2023/12/18 00:12:23;;;;;;;5.00;2.85;;;;;;;6.64;100.00;103357.59;5094286;27;97316;-27
2023/12/18 00:14:48;;;;;;;4.32;2.88;;;;;;;6.70;100.00;103368.38;5094442;27;96468;-28
2023/12/18 00:17:13;;;;;;;3.05;2.47;;;;;;;6.71;100.00;103371.94;5094491;27;96952;-28
2023/12/18 00:19:39;;;;;;;4.13;2.90;;;;;;;6.73;100.00;103364.75;5094108;27;97655;-28
2023/12/18 00:22:04;;;;;;;2.50;1.98;;;;;;;6.74;100.00;103364.72;5093804;27;99151;-28
2023/12/18 00:24:29;;;;;;;9.13;3.90;;;;;;;6.74;100.00;103367.41;5093453;27;96614;-27
2023/12/18 00:26:54;;;;;;;2.67;1.98;;;;;;;6.72;100.00;103355.78;5094293;27;96527;-28
2023/12/18 00:29:20;;;;;;;4.28;3.00;;;;;;;6.70;100.00;103343.25;5075391;27;100856;-27
2023/12/18 00:31:47;;;;;;;3.67;2.75;;;;;;;6.70;100.00;103349.50;5093244;27;107388;-27
2023/12/18 00:34:13;;;;;;;3.13;2.08;;;;;;;6.69;100.00;103341.44;5093979;27;96545;-27
2023/12/18 00:36:38;;;;;;;4.68;2.72;;;;;;;6.70;100.00;103344.13;5094089;27;96788;-28
2023/12/18 00:39:05;;;;;;;4.68;3.05;;;;;;;6.68;100.00;103342.34;5093539;27;99322;-28
2023/12/18 00:41:31;;;;;;;3.90;2.90;;;;;;;6.68;100.00;103340.53;5075299;27;100679;-27
2023/12/18 00:43:56;;;;;;;8.77;2.13;;;;;;;6.69;100.00;103345.00;5093899;27;96761;-28
2023/12/18 00:46:22;;;;;;;1.85;1.60;;;;;;;6.72;100.00;103352.19;5094027;27;96587;-28
2023/12/18 00:48:47;;;;;;;5.25;2.33;;;;;;;6.69;100.00;103336.94;5093361;27;97889;-27
2023/12/18 00:51:12;;;;;;;6.00;2.35;;;;;;;6.69;100.00;103344.13;5093246;27;99437;-27
2023/12/18 00:53:37;;;;;;;3.95;2.83;;;;;;;6.69;100.00;103341.44;5093914;27;96579;-29
2023/12/18 00:56:03;;;;;;;6.10;3.15;;;;;;;6.65;100.00;103334.25;5093708;27;96816;-27
2023/12/18 00:58:29;;;;;;;2.60;2.08;;;;;;;6.74;100.00;103347.69;5093261;27;98162;-28
2023/12/18 01:00:54;;;;;;;3.03;2.10;;;;;;;6.72;100.00;103352.19;5093890;27;97685;-29
2023/12/18 01:03:22;;;;;;;5.93;2.63;;;;;;;6.69;100.00;103352.19;5093586;27;96729;-27
2023/12/18 01:05:47;;;;;;;5.72;2.85;;;;;;;6.68;100.00;103351.31;5075317;27;96968;-27
2023/12/18 01:08:12;;;;;;;3.80;2.67;;;;;;;6.67;100.00;103346.81;5093124;27;103488;-28
2023/12/18 01:10:38;;;;;;;4.13;2.97;;;;;;;6.74;100.00;103347.69;5093557;27;97762;-27
2023/12/18 01:13:03;;;;;;;5.20;2.45;;;;;;;6.74;100.00;103342.28;5093520;27;96614;-28
2023/12/18 01:15:29;;;;;;;3.42;2.47;;;;;;;6.72;100.00;103345.03;5093028;27;96879;-27
2023/12/18 01:17:54;;;;;;;3.72;2.33;;;;;;;6.69;100.00;103342.31;5092698;27;108388;-27
2023/12/18 01:20:19;;;;;;;5.20;3.00;;;;;;;6.69;100.00;103342.31;5093435;27;97682;-28
2023/12/18 01:22:45;;;;;;;4.78;2.30;;;;;;;6.68;100.00;103340.53;5093469;27;96534;-28
2023/12/18 01:25:10;;;;;;;5.93;3.50;;;;;;;6.65;100.00;103340.56;5074622;27;96941;-28
2023/12/18 01:27:36;;;;;;;9.50;2.45;;;;;;;6.64;100.00;103336.06;5096172;27;99245;-27
2023/12/18 01:30:02;;;;;;;7.28;3.83;;;;;;;6.64;100.00;103327.97;5096998;27;97744;-28
2023/12/18 01:32:27;;;;;;;5.65;2.63;;;;;;;6.65;100.00;103327.09;5078183;27;96808;-27
2023/12/18 01:34:52;;;;;;;5.50;3.13;;;;;;;6.70;100.00;103337.84;5097024;27;96897;-28
2023/12/18 01:37:18;;;;;;;7.10;2.83;;;;;;;6.60;100.00;103318.13;5095898;27;99454;-28
2023/12/18 01:39:43;;;;;;;4.68;2.67;;;;;;;6.64;100.00;103321.72;5096721;27;96524;-27
2023/12/18 01:42:08;;;;;;;4.70;3.28;;;;;;;6.71;100.00;103331.53;5096732;27;99068;-28
2023/12/18 01:44:34;;;;;;;4.05;2.63;;;;;;;6.70;100.00;103319.88;5096455;27;96863;-28
2023/12/18 01:46:59;;;;;;;3.00;2.38;;;;;;;6.71;100.00;103315.38;5096533;27;100625;-27
2023/12/18 01:49:25;;;;;;;3.40;2.70;;;;;;;6.66;100.00;103312.72;5096609;27;97246;-28
2023/12/18 01:51:50;;;;;;;2.90;2.10;;;;;;;6.71;100.00;103321.66;5096812;27;96858;-28
2023/12/18 01:54:19;;;;;;;3.58;2.42;;;;;;;6.68;100.00;103310.91;5097228;27;96812;-29
2023/12/18 01:56:45;;;;;;;2.85;2.55;;;;;;;6.72;100.00;103319.84;5077759;27;100765;-27
2023/12/18 01:59:10;;;;;;;4.20;2.72;;;;;;;6.73;100.00;103316.28;5095830;27;97795;-28
2023/12/18 02:01:36;;;;;;;4.50;2.67;;;;;;;6.72;100.00;103317.16;5096185;27;96498;-28
2023/12/18 02:04:02;;;;;;;6.50;2.83;;;;;;;6.73;100.00;103316.28;5096394;27;96771;-27
2023/12/18 02:06:28;;;;;;;7.03;2.42;;;;;;;6.74;100.00;103329.72;5077616;27;100889;-28
2023/12/18 02:08:55;;;;;;;3.08;2.42;;;;;;;6.77;100.00;103326.13;5077507;27;100859;-27
2023/12/18 02:11:21;;;;;;;4.55;3.08;;;;;;;6.75;100.00;103331.53;5077658;27;96660;-28
2023/12/18 02:13:47;;;;;;;3.70;1.95;;;;;;;6.77;100.00;103329.72;5096201;27;96786;-28
2023/12/18 02:16:12;;;;;;;4.03;2.25;;;;;;;6.71;100.00;103320.78;5096086;27;97469;-28
2023/12/18 02:18:45;;;;;;;11.70;2.78;;;;;;;6.75;100.00;103318.06;5096230;27;98666;-27
2023/12/18 02:21:10;;;;;;;2.15;1.95;;;;;;;6.79;100.00;103324.31;5077526;27;96721;-28
2023/12/18 02:23:35;;;;;;;3.47;2.22;;;;;;;6.74;100.00;103308.16;5096563;27;96880;-28
2023/12/18 02:26:01;;;;;;;4.45;2.70;;;;;;;6.77;100.00;103313.56;5095293;27;99278;-27
2023/12/18 02:28:27;;;;;;;4.10;2.53;;;;;;;6.76;100.00;103306.38;5095639;27;101192;-28
2023/12/18 02:30:53;;;;;;;2.85;2.05;;;;;;;6.77;100.00;103301.91;5077102;27;99001;-27
2023/12/18 02:33:18;;;;;;;6.95;2.55;;;;;;;6.81;100.00;103309.03;5096042;27;96781;-27
2023/12/18 02:35:43;;;;;;;3.83;2.45;;;;;;;6.79;100.00;103309.06;5077528;27;97971;-27
2023/12/18 02:38:09;;;;;;;2.80;1.88;;;;;;;6.80;100.00;103299.19;5094692;27;97722;-28
2023/12/18 02:40:35;;;;;;;4.30;1.95;;;;;;;6.78;100.00;103293.78;5095716;27;96738;-29
2023/12/18 02:43:01;;;;;;;5.20;2.40;;;;;;;6.78;100.00;103287.50;5077464;27;96933;-28
2023/12/18 02:45:26;;;;;;;4.65;2.53;;;;;;;6.84;100.00;103298.25;5095478;27;99314;-27
2023/12/18 02:47:51;;;;;;;11.68;2.80;;;;;;;6.84;100.00;103291.94;5095616;27;97917;-27
2023/12/18 02:50:17;;;;;;;3.30;2.08;;;;;;;6.82;100.00;103305.44;5094812;27;96484;-29
2023/12/18 02:52:42;;;;;;;5.32;3.00;;;;;;;6.84;100.00;103295.56;5095611;27;96812;-27
2023/12/18 02:55:11;;;;;;;4.38;2.85;;;;;;;6.78;100.00;103285.69;5095649;27;97940;-27
2023/12/18 02:57:36;;;;;;;4.18;2.50;;;;;;;6.79;100.00;103292.91;5076682;27;101049;-28
2023/12/18 03:00:03;;;;;;;2.97;2.42;;;;;;;6.81;100.00;103291.06;5095171;27;96852;-28
2023/12/18 03:02:28;;;;;;;3.95;2.90;;;;;;;6.85;100.00;103299.16;5076864;27;96807;-29
2023/12/18 03:04:53;;;;;;;6.60;2.67;;;;;;;6.84;100.00;103298.25;5095403;27;97285;-28
2023/12/18 03:07:19;;;;;;;4.63;2.90;;;;;;;6.85;100.00;103293.75;5095838;27;100032;-28
2023/12/18 03:09:44;;;;;;;4.32;2.50;;;;;;;6.81;100.00;103291.06;5095391;27;96727;-27
2023/12/18 03:12:09;;;;;;;3.15;2.58;;;;;;;6.79;100.00;103283.91;5095034;27;96909;-27
2023/12/18 03:14:35;;;;;;;6.72;2.70;;;;;;;6.84;100.00;103291.94;5094699;27;97427;-29
2023/12/18 03:17:00;;;;;;;4.93;2.60;;;;;;;6.80;100.00;103280.31;5095174;27;100398;-27
2023/12/18 03:19:25;;;;;;;3.78;1.73;;;;;;;6.88;100.00;103294.63;5095659;27;96518;-28
2023/12/18 03:21:51;;;;;;;4.03;2.70;;;;;;;6.91;100.00;103293.69;5094995;27;96805;-27
2023/12/18 03:24:16;;;;;;;4.13;2.75;;;;;;;6.87;100.00;103292.84;5094801;27;99697;-28
2023/12/18 03:26:41;;;;;;;4.57;2.92;;;;;;;6.90;100.00;103291.94;5094901;27;98310;-28
2023/12/18 03:29:07;;;;;;;8.00;3.80;;;;;;;6.86;100.00;103284.75;5095310;27;96551;-28
2023/12/18 03:31:32;;;;;;;4.75;2.67;;;;;;;6.87;100.00;103289.25;5095168;27;96933;-27
2023/12/18 03:33:58;;;;;;;3.42;2.42;;;;;;;6.90;100.00;103286.53;5094811;27;99730;-28
2023/12/18 03:36:23;;;;;;;5.95;2.22;;;;;;;6.91;100.00;103288.31;5094424;27;106158;-27
2023/12/18 03:38:49;;;;;;;3.67;2.80;;;;;;;6.92;100.00;103284.72;5094437;27;96550;-28
2023/12/18 03:41:14;;;;;;;3.10;2.05;;;;;;;6.90;100.00;103278.47;5094854;27;96800;-27
2023/12/18 03:43:39;;;;;;;3.67;2.63;;;;;;;6.89;100.00;103279.34;5094928;27;98155;-27
2023/12/18 03:46:06;;;;;;;3.50;2.60;;;;;;;6.92;100.00;103273.97;5094770;27;97928;-28
2023/12/18 03:48:31;;;;;;;5.28;2.78;;;;;;;6.93;100.00;103278.44;5075807;27;96577;-27
2023/12/18 03:50:56;;;;;;;6.35;2.67;;;;;;;6.97;100.00;103277.50;5094953;27;96944;-28
2023/12/18 03:53:22;;;;;;;3.65;2.05;;;;;;;6.96;100.00;103290.09;5094627;27;97859;-27
2023/12/18 03:55:48;;;;;;;2.53;1.98;;;;;;;6.99;100.00;103286.47;5095009;27;101313;-28
2023/12/18 03:58:13;;;;;;;2.42;2.05;;;;;;;6.97;100.00;103285.59;5075772;27;96609;-30
2023/12/18 04:00:39;;;;;;;10.10;2.85;;;;;;;6.94;100.00;103270.34;5076138;27;96619;-27
2023/12/18 04:03:04;;;;;;;3.17;2.15;;;;;;;6.99;100.00;103273.00;5093969;27;97888;-27
2023/12/18 04:05:30;;;;;;;3.05;2.17;;;;;;;7.01;100.00;103274.78;5094357;27;97322;-28
2023/12/18 04:07:56;;;;;;;3.17;2.33;;;;;;;7.00;100.00;103270.28;5094511;27;96473;-27
2023/12/18 04:10:21;;;;;;;4.07;2.03;;;;;;;7.03;100.00;103272.06;5094182;27;96749;-28
2023/12/18 04:12:46;;;;;;;4.05;2.35;;;;;;;6.99;100.00;103260.41;5094148;27;97261;-27
2023/12/18 04:15:11;;;;;;;4.75;2.55;;;;;;;6.94;100.00;103254.19;5093837;27;107092;-27
2023/12/18 04:17:37;;;;;;;5.65;2.45;;;;;;;7.00;100.00;103275.66;5094030;27;96668;-27
2023/12/18 04:20:04;;;;;;;5.32;2.17;;;;;;;7.00;100.00;103262.19;5094789;27;96738;-27
2023/12/18 04:22:30;;;;;;;7.13;2.03;;;;;;;7.01;100.00;103277.47;5075504;27;101019;-30
2023/12/18 04:24:55;;;;;;;4.38;3.00;;;;;;;6.96;100.00;103260.44;5094173;27;98046;-28
2023/12/18 04:27:20;;;;;;;3.60;2.45;;;;;;;6.93;100.00;103271.22;5093737;27;96540;-29
2023/12/18 04:29:46;;;;;;;7.90;2.05;;;;;;;6.89;100.00;103255.09;5094070;27;96837;-27
2023/12/18 04:32:11;;;;;;;4.70;3.15;;;;;;;6.96;100.00;103270.31;5094049;27;97943;-28
2023/12/18 04:34:36;;;;;;;4.00;2.55;;;;;;;6.95;100.00;103257.75;5093865;27;100553;-28
2023/12/18 04:37:02;;;;;;;7.50;2.97;;;;;;;6.94;100.00;103261.38;5093947;27;96586;-28
2023/12/18 04:39:27;;;;;;;5.82;3.20;;;;;;;6.84;100.00;103249.78;5094039;27;96791;-27
2023/12/18 04:41:52;;;;;;;3.72;2.50;;;;;;;6.90;100.00;103259.59;5093867;27;98292;-27
2023/12/18 04:44:18;;;;;;;6.00;2.70;;;;;;;6.86;100.00;103257.81;5093960;27;106813;-27
2023/12/18 04:46:43;;;;;;;4.32;2.83;;;;;;;6.86;100.00;103257.81;5094045;27;96751;-27
2023/12/18 04:49:09;;;;;;;3.92;2.42;;;;;;;6.86;100.00;103260.50;5093949;27;96886;-27
2023/12/18 04:51:35;;;;;;;4.43;3.17;;;;;;;6.89;100.00;103264.09;5092583;27;99836;-29
2023/12/18 04:54:00;;;;;;;11.35;3.05;;;;;;;6.85;100.00;103256.94;5074947;27;101004;-27
2023/12/18 04:56:25;;;;;;;3.67;2.45;;;;;;;6.85;100.00;103265.00;5074792;27;96686;-27
2023/12/18 04:58:51;;;;;;;3.97;2.70;;;;;;;6.88;100.00;103275.75;5093466;27;96834;-27
2023/12/18 05:01:17;;;;;;;4.13;2.80;;;;;;;6.84;100.00;103268.63;5092653;27;98182;-28
2023/12/18 05:03:42;;;;;;;3.90;2.08;;;;;;;6.89;100.00;103282.03;5093447;27;97766;-27
2023/12/18 05:06:21;;;;;;;3.67;2.75;;;;;;;6.84;100.00;103265.94;5093732;27;100878;-27
2023/12/18 05:08:48;;;;;;;4.47;3.00;;;;;;;6.78;100.00;103255.19;5075317;27;96709;-29
2023/12/18 05:11:16;;;;;;;4.00;2.85;;;;;;;6.88;100.00;103272.19;5074689;27;99209;-29
2023/12/18 05:13:41;;;;;;;3.95;2.58;;;;;;;6.84;100.00;103256.94;5074773;27;100813;-27
2023/12/18 05:16:06;;;;;;;5.50;2.78;;;;;;;6.80;100.00;103254.28;5092517;27;102446;-28
2023/12/18 05:18:32;;;;;;;4.80;2.72;;;;;;;6.86;100.00;103264.09;5093576;27;96849;-27
2023/12/18 05:21:00;;;;;;;3.80;2.88;;;;;;;6.80;100.00;103256.06;5093406;27;97906;-27
2023/12/18 05:23:26;;;;;;;5.65;3.40;;;;;;;6.76;100.00;103249.81;5092797;27;99101;-27
2023/12/18 05:25:51;;;;;;;4.75;2.53;;;;;;;6.82;100.00;103256.97;5093222;27;96441;-27
2023/12/18 05:28:18;;;;;;;2.08;1.83;;;;;;;6.84;100.00;103248.84;5093322;27;96912;-27
2023/12/18 05:30:43;;;;;;;7.22;2.88;;;;;;;6.83;100.00;103252.47;5074355;27;100876;-28
2023/12/18 05:33:10;;;;;;;5.82;2.97;;;;;;;6.85;100.00;103245.28;5093502;27;97811;-27
2023/12/18 05:35:35;;;;;;;5.97;2.17;;;;;;;6.81;100.00;103239.88;5074461;27;96728;-27
2023/12/18 05:38:00;;;;;;;3.55;2.22;;;;;;;6.87;100.00;103256.94;5093152;27;96777;-27
2023/12/18 05:40:26;;;;;;;6.22;3.25;;;;;;;6.87;100.00;103248.84;5092680;27;97859;-28
2023/12/18 05:42:51;;;;;;;7.55;2.22;;;;;;;6.87;100.00;103251.53;5093211;27;99975;-27
2023/12/18 05:45:16;;;;;;;5.65;3.03;;;;;;;6.87;100.00;103249.75;5093013;27;99927;-27
2023/12/18 05:47:42;;;;;;;2.15;1.95;;;;;;;6.84;100.00;103254.25;5093154;27;96657;-27
2023/12/18 05:50:08;;;;;;;5.40;2.05;;;;;;;6.81;100.00;103249.78;5092863;27;98059;-27
2023/12/18 05:52:33;;;;;;;6.45;2.50;;;;;;;6.83;100.00;103255.16;5092862;27;99034;-28
2023/12/18 05:54:58;;;;;;;9.82;3.22;;;;;;;6.86;100.00;103264.09;5092970;27;96505;-28
2023/12/18 05:57:23;;;;;;;4.38;2.88;;;;;;;6.89;100.00;103261.41;5093142;27;100068;-28
2023/12/18 05:59:49;;;;;;;4.32;2.95;;;;;;;6.91;100.00;103261.38;5092271;27;99506;-28
2023/12/18 06:02:14;;;;;;;2.90;2.30;;;;;;;6.86;100.00;103257.81;5092604;27;99625;-27
2023/12/18 06:04:43;;;;;;;3.55;1.95;;;;;;;6.88;100.00;103250.63;5092527;27;96543;-28
2023/12/18 06:07:09;;;;;;;4.30;2.85;;;;;;;6.93;100.00;103255.06;5092325;27;96826;-31
2023/12/18 06:09:34;;;;;;;4.80;2.65;;;;;;;6.90;100.00;103260.47;5092674;27;97444;-29
2023/12/18 06:11:59;;;;;;;3.65;2.83;;;;;;;6.92;100.00;103260.47;5093154;27;104224;-28
2023/12/18 06:14:25;;;;;;;4.85;2.35;;;;;;;6.93;100.00;103256.88;5096359;27;96597;-28
2023/12/18 06:16:50;;;;;;;9.10;2.78;;;;;;;6.95;100.00;103263.16;5096367;27;96823;-28
2023/12/18 06:19:15;;;;;;;4.63;2.97;;;;;;;6.88;100.00;103256.00;5096451;27;97345;-28
2023/12/18 06:21:41;;;;;;;5.93;3.35;;;;;;;6.90;100.00;103259.59;5095887;27;99510;-27
2023/12/18 06:24:07;;;;;;;9.48;3.88;;;;;;;6.91;100.00;103264.06;5095949;27;96635;-28
2023/12/18 06:26:32;;;;;;;2.88;1.90;;;;;;;6.90;100.00;103260.47;5096488;27;96782;-27
2023/12/18 06:28:57;;;;;;;4.35;2.47;;;;;;;6.89;100.00;103257.78;5095156;27;98978;-27
2023/12/18 06:31:23;;;;;;;4.88;2.97;;;;;;;6.91;100.00;103256.91;5095801;27;97801;-29
2023/12/18 06:33:48;;;;;;;5.32;2.80;;;;;;;6.97;100.00;103261.34;5096067;27;96545;-28
2023/12/18 06:36:19;;;;;;;5.93;2.53;;;;;;;6.94;100.00;103262.25;5076943;27;96849;-29
2023/12/18 06:38:44;;;;;;;5.47;2.10;;;;;;;6.97;100.00;103261.34;5076960;27;101872;-27
2023/12/18 06:41:10;;;;;;;4.60;2.83;;;;;;;6.95;100.00;103258.66;5095567;27;98807;-28
2023/12/18 06:43:35;;;;;;;2.40;1.83;;;;;;;7.00;100.00;103262.19;5095560;27;96501;-28
2023/12/18 06:46:01;;;;;;;3.70;2.53;;;;;;;6.97;100.00;103258.66;5096005;27;96812;-27
2023/12/18 06:48:26;;;;;;;1.83;1.65;;;;;;;7.02;100.00;103259.50;5095774;27;97938;-28
2023/12/18 06:50:52;;;;;;;4.03;2.58;;;;;;;6.98;100.00;103258.66;5095260;27;97786;-28
2023/12/18 06:53:17;;;;;;;5.40;2.97;;;;;;;6.96;100.00;103249.69;5095214;27;96567;-28
2023/12/18 06:55:43;;;;;;;4.85;2.78;;;;;;;6.99;100.00;103240.66;5095670;27;96819;-28
2023/12/18 06:58:08;;;;;;;5.60;3.17;;;;;;;6.95;100.00;103237.09;5095552;27;97917;-28
2023/12/18 07:00:34;;;;;;;4.07;2.75;;;;;;;7.00;100.00;103255.91;5076845;27;101252;-27
2023/12/18 07:02:59;;;;;;;6.18;3.58;;;;;;;7.01;100.00;103257.72;5095361;27;96509;-28
2023/12/18 07:05:26;;;;;;;2.05;1.75;;;;;;;6.95;100.00;103238.91;5095386;27;96785;-28
2023/12/18 07:07:52;;;;;;;5.88;2.95;;;;;;;6.97;100.00;103245.16;5095175;27;97591;-28
2023/12/18 07:10:17;;;;;;;4.57;2.80;;;;;;;7.00;100.00;103248.72;5095218;27;99539;-28
2023/12/18 07:12:42;;;;;;;3.85;2.70;;;;;;;6.98;100.00;103241.56;5095366;27;96432;-28
2023/12/18 07:15:08;;;;;;;3.70;2.40;;;;;;;7.00;100.00;103246.03;5093635;27;96967;-29
2023/12/18 07:17:33;;;;;;;4.78;2.53;;;;;;;7.02;100.00;103255.00;5094368;27;97955;-28
2023/12/18 07:19:59;;;;;;;5.57;3.40;;;;;;;6.93;100.00;103227.22;5094765;27;98922;-28
2023/12/18 07:22:24;;;;;;;4.22;2.63;;;;;;;6.97;100.00;103235.28;5095022;27;96526;-27
2023/12/18 07:24:50;;;;;;;6.15;3.58;;;;;;;7.00;100.00;103237.06;5094531;27;96889;-27
2023/12/18 07:27:15;;;;;;;3.83;1.95;;;;;;;7.01;100.00;103236.16;5094902;27;99560;-28
2023/12/18 07:29:40;;;;;;;7.47;3.13;;;;;;;7.04;100.00;103241.53;5094987;27;97784;-28
2023/12/18 07:32:06;;;;;;;3.50;2.17;;;;;;;7.06;100.00;103238.81;5093971;27;96849;-28
2023/12/18 07:34:31;;;;;;;5.97;3.30;;;;;;;7.04;100.00;103237.94;5093126;27;97065;-30
2023/12/18 07:36:57;;;;;;;3.90;2.75;;;;;;;7.02;100.00;103235.25;5092099;27;97267;-31
2023/12/18 07:39:22;;;;;;;6.75;3.63;;;;;;;6.98;100.00;103239.78;5092184;27;102410;-28
2023/12/18 07:41:47;;;;;;;3.80;2.40;;;;;;;6.97;100.00;103250.56;5091965;27;96785;-32
2023/12/18 07:44:13;;;;;;;2.90;1.77;;;;;;;6.98;100.00;103241.56;5092389;27;96795;-31
2023/12/18 07:46:38;;;;;;;4.28;2.70;;;;;;;7.00;100.00;103234.34;5092200;27;97938;-28
2023/12/18 07:49:04;;;;;;;3.97;2.60;;;;;;;6.94;100.00;103227.22;5094559;27;97929;-32
2023/12/18 07:51:29;;;;;;;7.97;3.40;;;;;;;6.96;100.00;103230.81;5094012;27;96821;-27
2023/12/18 07:53:54;;;;;;;4.03;2.83;;;;;;;6.96;100.00;103227.19;5095103;27;96863;-28
2023/12/18 07:56:20;;;;;;;6.50;2.55;;;;;;;6.95;100.00;103226.31;5094419;27;97398;-27
2023/12/18 07:58:45;;;;;;;3.78;2.30;;;;;;;7.02;100.00;103237.94;5094376;27;99765;-29
2023/12/18 08:01:10;;;;;;;9.60;2.97;;;;;;;7.04;100.00;103240.63;5094538;27;96614;-28
2023/12/18 08:03:36;;;;;;;2.65;2.33;;;;;;;7.04;100.00;103246.91;5094459;27;96836;-29
2023/12/18 08:06:01;;;;;;;5.28;2.88;;;;;;;7.07;100.00;103237.91;5093890;27;97438;-27
2023/12/18 08:08:27;;;;;;;7.03;3.03;;;;;;;7.07;100.00;103254.97;5094136;27;98746;-27
2023/12/18 08:10:52;;;;;;;4.38;2.53;;;;;;;7.06;100.00;103237.03;5094466;27;96586;-28
2023/12/18 08:13:17;;;;;;;5.15;2.65;;;;;;;7.06;100.00;103241.53;5094444;27;96824;-28
2023/12/18 08:15:43;;;;;;;7.13;2.65;;;;;;;7.08;100.00;103246.00;5094172;27;97454;-27
2023/12/18 08:18:08;;;;;;;18.52;3.10;;;;;;;7.09;100.00;103245.06;5094011;27;99058;-27
2023/12/18 08:20:33;;;;;;;3.63;2.38;;;;;;;7.12;100.00;103249.53;5093878;27;96760;-27
2023/12/18 08:22:58;;;;;;;5.57;3.35;;;;;;;7.15;100.00;103253.13;5094879;27;96885;-27
2023/12/18 08:25:25;;;;;;;6.40;2.65;;;;;;;7.11;100.00;103247.75;5094214;27;104620;-27
2023/12/18 08:27:50;;;;;;;3.58;3.08;;;;;;;7.10;100.00;103238.75;5093883;27;99157;-27
2023/12/18 08:30:16;;;;;;;3.08;2.47;;;;;;;7.12;100.00;103236.06;5093647;27;96676;-27
2023/12/18 08:32:41;;;;;;;5.18;3.00;;;;;;;7.14;100.00;103253.13;5093949;27;96799;-29
2023/12/18 08:35:07;;;;;;;4.82;2.70;;;;;;;7.12;100.00;103245.03;5093083;27;104742;-28
2023/12/18 08:37:32;;;;;;;3.80;2.08;;;;;;;7.14;100.00;103256.69;5093292;27;97662;-28
2023/12/18 08:39:58;;;;;;;2.83;2.08;;;;;;;7.11;100.00;103251.34;5094162;27;96622;-27
2023/12/18 08:42:23;;;;;;;4.47;2.22;;;;;;;7.08;100.00;103250.47;5093733;27;96489;-28
2023/12/18 08:44:49;;;;;;;5.00;2.72;;;;;;;7.07;100.00;103243.28;5093967;27;97923;-29
2023/12/18 08:47:14;;;;;;;2.55;2.00;;;;;;;7.06;100.00;103241.53;5075466;27;101020;-27
2023/12/18 08:49:40;;;;;;;5.95;2.63;;;;;;;7.11;100.00;103245.94;5093378;27;96658;-28
2023/12/18 08:52:05;;;;;;;4.45;2.10;;;;;;;7.10;100.00;103249.53;5093844;27;96820;-28
2023/12/18 08:54:30;;;;;;;6.00;2.75;;;;;;;7.02;100.00;103240.63;5093085;27;97988;-32
2023/12/18 08:56:56;;;;;;;9.88;3.40;;;;;;;7.01;100.00;103245.13;5093540;27;97295;-27
2023/12/18 08:59:21;;;;;;;2.85;1.50;;;;;;;7.01;100.00;103250.53;5093464;27;96742;-28
2023/12/18 09:01:47;;;;;;;3.85;3.00;;;;;;;6.99;100.00;103232.59;5093857;27;96810;-29
2023/12/18 09:04:12;;;;;;;7.57;3.35;;;;;;;7.00;100.00;103235.25;5093205;27;99515;-28
2023/12/18 09:06:38;;;;;;;4.75;3.08;;;;;;;7.05;100.00;103237.03;5093596;27;97281;-28
2023/12/18 09:09:04;;;;;;;5.57;2.45;;;;;;;7.08;100.00;103237.91;5093525;27;97106;-28
2023/12/18 09:11:33;;;;;;;6.60;2.53;;;;;;;7.01;100.00;103225.38;5093795;27;96713;-28
2023/12/18 09:13:59;;;;;;;5.97;3.05;;;;;;;7.06;100.00;103230.75;5093119;27;99240;-28
2023/12/18 09:16:24;;;;;;;5.97;3.05;;;;;;;7.04;100.00;103227.16;5093332;27;97759;-28
2023/12/18 09:18:49;;;;;;;5.85;3.53;;;;;;;7.02;100.00;103230.75;5092778;27;96690;-28
2023/12/18 09:21:15;;;;;;;4.40;2.80;;;;;;;7.06;100.00;103233.44;5093544;27;96820;-27
2023/12/18 09:23:41;;;;;;;3.90;2.85;;;;;;;7.06;100.00;103220.84;5093367;27;97894;-27
2023/12/18 09:26:06;;;;;;;4.90;3.20;;;;;;;7.12;100.00;103222.59;5092980;27;99319;-28
2023/12/18 09:28:32;;;;;;;9.02;3.08;;;;;;;7.14;100.00;103221.66;5093349;27;96545;-30
2023/12/18 09:30:57;;;;;;;4.03;2.75;;;;;;;7.16;100.00;103224.34;5093063;27;96754;-27
2023/12/18 09:33:22;;;;;;;4.82;2.13;;;;;;;7.14;100.00;103218.97;5093081;27;97380;-28
2023/12/18 09:35:48;;;;;;;3.42;2.08;;;;;;;7.20;100.00;103226.13;5093321;27;99131;-26
2023/12/18 09:38:13;;;;;;;4.50;3.03;;;;;;;7.21;100.00;103219.81;5093159;27;96520;-27
2023/12/18 09:40:44;;;;;;;5.60;2.88;;;;;;;7.27;100.00;103221.53;5093121;27;96794;-28
2023/12/18 09:43:15;;;;;;;6.07;3.05;;;;;;;7.32;100.00;103223.31;5073808;27;100875;-27
2023/12/18 09:45:40;;;;;;;5.27;3.30;;;;;;;7.30;100.00;103210.75;5074196;27;101130;-27
2023/12/18 09:48:06;;;;;;;5.75;3.55;;;;;;;7.37;100.00;103224.16;5095274;27;96676;-27
2023/12/18 09:50:32;;;;;;;5.40;3.00;;;;;;;7.33;100.00;103199.94;5077847;27;96842;-27
2023/12/18 09:53:10;;;;;;;6.90;2.45;;;;;;;7.35;100.00;103204.41;5096443;27;97487;-30
2023/12/18 09:55:36;;;;;;;6.28;3.55;;;;;;;7.40;100.00;103215.13;5077748;27;100974;-28
2023/12/18 09:58:02;;;;;;;7.05;4.00;;;;;;;7.40;100.00;103207.94;5077898;27;96666;-28
2023/12/18 10:00:28;;;;;;;4.22;2.63;;;;;;;7.48;100.00;103215.94;5077930;27;96834;-29
2023/12/18 10:02:58;;;;;;;4.60;3.13;;;;;;;7.47;100.00;103207.88;5077580;27;101688;-27
2023/12/18 10:05:24;;;;;;;3.15;2.30;;;;;;;7.47;100.00;103199.78;5077785;27;101904;-28
2023/12/18 10:07:51;;;;;;;5.43;3.60;;;;;;;7.47;100.00;103197.09;5096069;27;97316;-27
2023/12/18 10:10:16;;;;;;;5.43;3.42;;;;;;;7.47;100.00;103200.69;5096441;27;96799;-28
2023/12/18 10:12:42;;;;;;;4.97;3.25;;;;;;;7.51;100.00;103202.44;5096260;27;97407;-27
2023/12/18 10:15:14;;;;;;;6.53;3.47;;;;;;;7.51;100.00;103197.06;5095589;27;98816;-28
2023/12/18 10:17:40;;;;;;;;;;;;;;;7.55;100.00;103201.47;5077922;27;96620;-27
2023/12/18 10:20:07;;;;;;;6.38;2.40;;;;;;;7.52;100.00;103198.81;5077720;27;96932;-28
2023/12/18 10:22:32;;;;;;;6.13;2.85;;;;;;;7.50;100.00;103197.94;5077201;27;100872;-27
2023/12/18 10:25:04;;;;;;;3.60;2.53;;;;;;;7.50;100.00;103176.38;5096364;27;97298;-27
2023/12/18 10:27:33;;;;;;;5.80;3.92;;;;;;;7.49;100.00;103185.38;5077273;27;96791;-27
2023/12/18 10:30:00;;;;;;;8.30;4.00;;;;;;;7.40;100.00;103166.59;5077283;27;96862;-28
2023/12/18 10:32:29;;;;;;;4.68;3.15;;;;;;;7.52;100.00;103190.72;5076422;27;101002;-28
2023/12/18 10:34:58;;;;;;;5.85;3.35;;;;;;;7.53;100.00;103180.84;5096003;27;97399;-28
2023/12/18 10:37:28;;;;;;;5.70;3.47;;;;;;;7.54;100.00;103177.25;5077342;27;96634;-28
2023/12/18 10:40:00;;;;;;;4.30;2.47;;;;;;;7.54;100.00;103170.03;5077326;27;96786;-30
2023/12/18 10:42:35;;;;;;;4.75;2.95;;;;;;;7.58;100.00;103166.41;5077128;27;101134;-27
2023/12/18 10:45:02;;;;;;;5.03;3.08;;;;;;;7.59;100.00;103168.19;5076950;27;98990;-29
2023/12/18 10:47:30;;;;;;;9.52;4.13;;;;;;;7.49;100.00;103136.84;5077142;27;96720;-27
2023/12/18 10:50:01;;;;;;;13.68;4.82;;;;;;;7.55;100.00;103149.34;5077148;27;97779;-29
2023/12/18 10:52:29;;;;;;;5.10;2.83;;;;;;;7.56;100.00;103149.34;5095387;27;99280;-27
2023/12/18 10:55:00;;;;;;;6.93;3.45;;;;;;;7.55;100.00;103142.16;5076961;27;101024;-29
2023/12/18 10:57:28;;;;;;;5.38;3.55;;;;;;;7.52;100.00;103147.59;5076579;27;97332;-28
2023/12/18 10:59:55;;;;;;;6.43;4.35;;;;;;;7.52;100.00;103142.19;5075182;27;96943;-27
2023/12/18 11:02:20;;;;;;;6.50;3.63;;;;;;;7.47;100.00;103141.34;5095380;27;98063;-27
2023/12/18 11:04:48;;;;;;;7.97;3.75;;;;;;;7.54;100.00;103145.78;5095629;27;97314;-28
2023/12/18 11:07:16;;;;;;;3.95;2.25;;;;;;;7.50;100.00;103135.91;5076616;27;97152;-27
2023/12/18 11:09:43;;;;;;;8.98;3.80;;;;;;;7.51;100.00;103137.72;5076771;27;96685;-29
2023/12/18 11:12:11;;;;;;;4.60;2.83;;;;;;;7.48;100.00;103140.44;5076518;27;101584;-27
2023/12/18 11:14:55;;;;;;;4.38;3.20;;;;;;;7.50;100.00;103144.00;5076934;27;101164;-27
2023/12/18 11:17:36;;;;;;;10.38;4.57;;;;;;;7.41;100.00;103133.31;5095098;27;96658;-28